sensor_id;sensor_type;location;lat;lon;timestamp;pressure;altitude;pressure_sealevel;temperature;humidity
79465;BME280;68932;47.410;8.232;2023-06-19T00:00:06;96503.95;;;21.13;56.94
79465;BME280;68932;47.410;8.232;2023-06-19T00:02:34;96508.70;;;21.12;57.00
79465;BME280;68932;47.410;8.232;2023-06-19T00:05:02;96510.75;;;21.11;57.13
79465;BME280;68932;47.410;8.232;2023-06-19T00:07:31;96510.48;;;21.10;57.28
79465;BME280;68932;47.410;8.232;2023-06-19T00:09:59;96513.63;;;21.09;57.53
79465;BME280;68932;47.410;8.232;2023-06-19T00:12:27;96518.20;;;21.08;57.52
79465;BME280;68932;47.410;8.232;2023-06-19T00:14:56;96552.86;;;21.07;57.33
79465;BME280;68932;47.410;8.232;2023-06-19T00:17:24;96577.42;;;21.06;57.02
79465;BME280;68932;47.410;8.232;2023-06-19T00:19:53;96559.19;;;21.07;56.80
79465;BME280;68932;47.410;8.232;2023-06-19T00:22:21;96553.19;;;21.07;56.41
79465;BME280;68932;47.410;8.232;2023-06-19T00:24:49;96556.46;;;21.08;56.35
79465;BME280;68932;47.410;8.232;2023-06-19T00:27:18;96556.69;;;21.10;56.48
79465;BME280;68932;47.410;8.232;2023-06-19T00:29:46;96554.64;;;21.10;56.78
79465;BME280;68932;47.410;8.232;2023-06-19T00:32:14;96549.11;;;21.12;57.31
79465;BME280;68932;47.410;8.232;2023-06-19T00:34:42;96552.16;;;21.12;57.27
79465;BME280;68932;47.410;8.232;2023-06-19T00:37:11;96553.44;;;21.11;57.37
79465;BME280;68932;47.410;8.232;2023-06-19T00:39:39;96543.17;;;21.12;57.58
79465;BME280;68932;47.410;8.232;2023-06-19T00:42:08;96531.09;;;21.11;57.67
79465;BME280;68932;47.410;8.232;2023-06-19T00:44:36;96539.91;;;21.10;58.25
79465;BME280;68932;47.410;8.232;2023-06-19T00:47:06;96540.89;;;21.09;59.44
79465;BME280;68932;47.410;8.232;2023-06-19T00:49:34;96566.77;;;21.04;60.88
79465;BME280;68932;47.410;8.232;2023-06-19T00:52:03;96516.77;;;20.97;63.32
79465;BME280;68932;47.410;8.232;2023-06-19T00:54:32;96511.64;;;20.77;64.45
79465;BME280;68932;47.410;8.232;2023-06-19T00:57:01;96517.68;;;20.61;64.94
79465;BME280;68932;47.410;8.232;2023-06-19T00:59:30;96516.73;;;20.52;65.54
79465;BME280;68932;47.410;8.232;2023-06-19T01:01:59;96520.55;;;20.47;66.55
79465;BME280;68932;47.410;8.232;2023-06-19T01:04:27;96529.01;;;20.43;66.80
79465;BME280;68932;47.410;8.232;2023-06-19T01:06:57;96533.23;;;20.39;66.94
79465;BME280;68932;47.410;8.232;2023-06-19T01:09:31;96543.45;;;20.36;67.63
79465;BME280;68932;47.410;8.232;2023-06-19T01:12:06;96558.89;;;20.33;68.19
79465;BME280;68932;47.410;8.232;2023-06-19T01:14:39;96584.55;;;20.30;68.77
79465;BME280;68932;47.410;8.232;2023-06-19T01:17:13;96612.98;;;20.19;69.10
79465;BME280;68932;47.410;8.232;2023-06-19T01:19:41;96629.29;;;20.07;69.09
79465;BME280;68932;47.410;8.232;2023-06-19T01:22:10;96633.70;;;19.98;69.02
79465;BME280;68932;47.410;8.232;2023-06-19T01:24:38;96645.09;;;19.89;69.26
79465;BME280;68932;47.410;8.232;2023-06-19T01:27:07;96631.48;;;19.84;68.97
79465;BME280;68932;47.410;8.232;2023-06-19T01:29:35;96635.48;;;19.80;68.73
79465;BME280;68932;47.410;8.232;2023-06-19T01:32:09;96644.52;;;19.77;69.07
79465;BME280;68932;47.410;8.232;2023-06-19T01:34:39;96651.13;;;19.75;68.98
79465;BME280;68932;47.410;8.232;2023-06-19T01:37:11;96644.05;;;19.74;69.27
79465;BME280;68932;47.410;8.232;2023-06-19T01:39:40;96643.79;;;19.74;69.56
79465;BME280;68932;47.410;8.232;2023-06-19T01:42:10;96649.57;;;19.71;69.65
79465;BME280;68932;47.410;8.232;2023-06-19T01:44:39;96650.91;;;19.67;69.59
79465;BME280;68932;47.410;8.232;2023-06-19T01:47:11;96656.18;;;19.62;70.14
79465;BME280;68932;47.410;8.232;2023-06-19T01:49:39;96660.41;;;19.61;70.22
79465;BME280;68932;47.410;8.232;2023-06-19T01:52:09;96664.58;;;19.62;70.39
79465;BME280;68932;47.410;8.232;2023-06-19T01:54:38;96668.35;;;19.62;70.42
79465;BME280;68932;47.410;8.232;2023-06-19T01:57:07;96666.90;;;19.62;70.40
79465;BME280;68932;47.410;8.232;2023-06-19T01:59:36;96667.02;;;19.62;70.71
79465;BME280;68932;47.410;8.232;2023-06-19T02:02:05;96665.98;;;19.64;70.65
79465;BME280;68932;47.410;8.232;2023-06-19T02:04:33;96663.52;;;19.65;70.82
79465;BME280;68932;47.410;8.232;2023-06-19T02:07:01;96670.09;;;19.67;70.95
79465;BME280;68932;47.410;8.232;2023-06-19T02:09:30;96666.89;;;19.69;71.04
79465;BME280;68932;47.410;8.232;2023-06-19T02:11:58;96674.28;;;19.71;70.94
79465;BME280;68932;47.410;8.232;2023-06-19T02:14:26;96674.98;;;19.71;70.80
79465;BME280;68932;47.410;8.232;2023-06-19T02:16:55;96680.66;;;19.71;71.07
79465;BME280;68932;47.410;8.232;2023-06-19T02:19:23;96682.28;;;19.71;71.39
79465;BME280;68932;47.410;8.232;2023-06-19T02:21:51;96688.41;;;19.70;71.77
79465;BME280;68932;47.410;8.232;2023-06-19T02:24:19;96689.92;;;19.69;72.08
79465;BME280;68932;47.410;8.232;2023-06-19T02:26:48;96684.42;;;19.69;71.90
79465;BME280;68932;47.410;8.232;2023-06-19T02:29:16;96681.59;;;19.69;72.23
79465;BME280;68932;47.410;8.232;2023-06-19T02:31:45;96680.08;;;19.70;72.51
79465;BME280;68932;47.410;8.232;2023-06-19T02:34:14;96672.05;;;19.70;72.47
79465;BME280;68932;47.410;8.232;2023-06-19T02:36:42;96669.63;;;19.70;72.09
79465;BME280;68932;47.410;8.232;2023-06-19T02:39:11;96671.66;;;19.71;71.89
79465;BME280;68932;47.410;8.232;2023-06-19T02:41:39;96675.66;;;19.73;71.91
79465;BME280;68932;47.410;8.232;2023-06-19T02:44:07;96683.90;;;19.73;72.03
79465;BME280;68932;47.410;8.232;2023-06-19T02:46:35;96690.04;;;19.72;72.15
79465;BME280;68932;47.410;8.232;2023-06-19T02:49:03;96691.87;;;19.71;72.16
79465;BME280;68932;47.410;8.232;2023-06-19T02:51:32;96691.69;;;19.71;72.23
79465;BME280;68932;47.410;8.232;2023-06-19T02:54:00;96691.15;;;19.69;72.15
79465;BME280;68932;47.410;8.232;2023-06-19T02:56:28;96694.75;;;19.67;72.13
79465;BME280;68932;47.410;8.232;2023-06-19T02:58:56;96697.35;;;19.66;72.25
79465;BME280;68932;47.410;8.232;2023-06-19T03:01:25;96701.19;;;19.65;72.37
79465;BME280;68932;47.410;8.232;2023-06-19T03:03:53;96702.85;;;19.65;72.61
79465;BME280;68932;47.410;8.232;2023-06-19T03:06:21;96708.41;;;19.61;72.50
79465;BME280;68932;47.410;8.232;2023-06-19T03:08:50;96704.41;;;19.57;72.47
79465;BME280;68932;47.410;8.232;2023-06-19T03:11:19;96707.52;;;19.56;72.65
79465;BME280;68932;47.410;8.232;2023-06-19T03:13:49;96705.67;;;19.56;72.82
79465;BME280;68932;47.410;8.232;2023-06-19T03:16:19;96702.27;;;19.55;72.74
79465;BME280;68932;47.410;8.232;2023-06-19T03:18:47;96701.20;;;19.55;72.70
79465;BME280;68932;47.410;8.232;2023-06-19T03:21:16;96701.24;;;19.55;72.71
79465;BME280;68932;47.410;8.232;2023-06-19T03:23:45;96703.83;;;19.55;72.63
79465;BME280;68932;47.410;8.232;2023-06-19T03:26:13;96711.08;;;19.56;72.78
79465;BME280;68932;47.410;8.232;2023-06-19T03:28:41;96705.64;;;19.53;72.86
79465;BME280;68932;47.410;8.232;2023-06-19T03:31:09;96701.27;;;19.53;72.73
79465;BME280;68932;47.410;8.232;2023-06-19T03:33:37;96703.20;;;19.53;72.72
79465;BME280;68932;47.410;8.232;2023-06-19T03:36:07;96708.17;;;19.55;72.67
79465;BME280;68932;47.410;8.232;2023-06-19T03:38:35;96715.23;;;19.53;72.76
79465;BME280;68932;47.410;8.232;2023-06-19T03:41:03;96718.23;;;19.52;72.89
79465;BME280;68932;47.410;8.232;2023-06-19T03:43:32;96721.77;;;19.51;73.05
79465;BME280;68932;47.410;8.232;2023-06-19T03:46:00;96729.70;;;19.50;73.17
79465;BME280;68932;47.410;8.232;2023-06-19T03:48:28;96733.30;;;19.48;73.15
79465;BME280;68932;47.410;8.232;2023-06-19T03:50:56;96743.02;;;19.46;73.17
79465;BME280;68932;47.410;8.232;2023-06-19T03:53:25;96750.98;;;19.47;73.32
79465;BME280;68932;47.410;8.232;2023-06-19T03:55:53;96756.58;;;19.46;73.50
79465;BME280;68932;47.410;8.232;2023-06-19T03:58:21;96756.09;;;19.46;73.50
79465;BME280;68932;47.410;8.232;2023-06-19T04:00:49;96754.15;;;19.47;73.47
79465;BME280;68932;47.410;8.232;2023-06-19T04:03:18;96757.05;;;19.46;73.59
79465;BME280;68932;47.410;8.232;2023-06-19T04:05:46;96765.28;;;19.44;73.78
79465;BME280;68932;47.410;8.232;2023-06-19T04:08:15;96764.90;;;19.43;73.57
79465;BME280;68932;47.410;8.232;2023-06-19T04:10:43;96762.86;;;19.40;73.77
79465;BME280;68932;47.410;8.232;2023-06-19T04:13:11;96772.33;;;19.40;73.77
79465;BME280;68932;47.410;8.232;2023-06-19T04:15:39;96784.55;;;19.40;73.85
79465;BME280;68932;47.410;8.232;2023-06-19T04:18:08;96782.63;;;19.42;74.06
79465;BME280;68932;47.410;8.232;2023-06-19T04:20:36;96768.05;;;19.42;73.62
79465;BME280;68932;47.410;8.232;2023-06-19T04:23:04;96763.38;;;19.42;73.36
79465;BME280;68932;47.410;8.232;2023-06-19T04:25:33;96762.95;;;19.43;73.36
79465;BME280;68932;47.410;8.232;2023-06-19T04:28:01;96763.10;;;19.41;73.45
79465;BME280;68932;47.410;8.232;2023-06-19T04:30:29;96754.80;;;19.41;73.46
79465;BME280;68932;47.410;8.232;2023-06-19T04:32:58;96753.80;;;19.39;73.73
79465;BME280;68932;47.410;8.232;2023-06-19T04:35:26;96760.38;;;19.37;74.08
79465;BME280;68932;47.410;8.232;2023-06-19T04:37:55;96759.39;;;19.36;73.92
79465;BME280;68932;47.410;8.232;2023-06-19T04:40:23;96754.92;;;19.36;73.56
79465;BME280;68932;47.410;8.232;2023-06-19T04:42:51;96748.40;;;19.38;73.88
79465;BME280;68932;47.410;8.232;2023-06-19T04:45:20;96751.79;;;19.38;74.28
79465;BME280;68932;47.410;8.232;2023-06-19T04:47:48;96751.95;;;19.38;74.35
79465;BME280;68932;47.410;8.232;2023-06-19T04:50:17;96753.27;;;19.39;74.35
79465;BME280;68932;47.410;8.232;2023-06-19T04:52:45;96758.15;;;19.39;74.35
79465;BME280;68932;47.410;8.232;2023-06-19T04:55:13;96762.73;;;19.40;74.34
79465;BME280;68932;47.410;8.232;2023-06-19T04:57:41;96765.98;;;19.41;74.40
79465;BME280;68932;47.410;8.232;2023-06-19T05:00:11;96768.34;;;19.42;74.54
79465;BME280;68932;47.410;8.232;2023-06-19T05:02:40;96761.17;;;19.43;74.44
79465;BME280;68932;47.410;8.232;2023-06-19T05:05:10;96758.46;;;19.43;74.22
79465;BME280;68932;47.410;8.232;2023-06-19T05:07:39;96763.41;;;19.44;74.36
79465;BME280;68932;47.410;8.232;2023-06-19T05:10:09;96758.52;;;19.44;74.29
79465;BME280;68932;47.410;8.232;2023-06-19T05:12:37;96751.85;;;19.47;74.27
79465;BME280;68932;47.410;8.232;2023-06-19T05:15:08;96751.92;;;19.49;74.44
79465;BME280;68932;47.410;8.232;2023-06-19T05:17:36;96751.39;;;19.51;74.41
79465;BME280;68932;47.410;8.232;2023-06-19T05:20:06;96752.03;;;19.52;74.34
79465;BME280;68932;47.410;8.232;2023-06-19T05:22:34;96749.83;;;19.51;74.50
79465;BME280;68932;47.410;8.232;2023-06-19T05:25:03;96750.56;;;19.51;74.31
79465;BME280;68932;47.410;8.232;2023-06-19T05:27:32;96751.67;;;19.52;74.26
79465;BME280;68932;47.410;8.232;2023-06-19T05:30:00;96750.44;;;19.55;74.24
79465;BME280;68932;47.410;8.232;2023-06-19T05:32:28;96744.05;;;19.57;74.27
79465;BME280;68932;47.410;8.232;2023-06-19T05:34:57;96743.21;;;19.60;73.94
79465;BME280;68932;47.410;8.232;2023-06-19T05:37:25;96740.98;;;19.61;73.87
79465;BME280;68932;47.410;8.232;2023-06-19T05:39:53;96742.71;;;19.60;73.85
79465;BME280;68932;47.410;8.232;2023-06-19T05:42:21;96742.15;;;19.56;73.93
79465;BME280;68932;47.410;8.232;2023-06-19T05:44:50;96744.20;;;19.52;73.53
79465;BME280;68932;47.410;8.232;2023-06-19T05:47:18;96743.69;;;19.51;73.70
79465;BME280;68932;47.410;8.232;2023-06-19T05:49:46;96742.70;;;19.53;73.63
79465;BME280;68932;47.410;8.232;2023-06-19T05:52:14;96749.64;;;19.56;73.81
79465;BME280;68932;47.410;8.232;2023-06-19T05:54:43;96752.23;;;19.61;73.87
79465;BME280;68932;47.410;8.232;2023-06-19T05:57:11;96752.63;;;19.66;73.81
79465;BME280;68932;47.410;8.232;2023-06-19T05:59:39;96753.55;;;19.73;73.50
79465;BME280;68932;47.410;8.232;2023-06-19T06:02:08;96751.96;;;19.81;73.26
79465;BME280;68932;47.410;8.232;2023-06-19T06:04:36;96753.57;;;19.89;73.23
79465;BME280;68932;47.410;8.232;2023-06-19T06:07:05;96752.61;;;19.93;72.70
79465;BME280;68932;47.410;8.232;2023-06-19T06:09:34;96751.39;;;20.00;73.14
79465;BME280;68932;47.410;8.232;2023-06-19T06:12:02;96749.29;;;20.11;73.37
79465;BME280;68932;47.410;8.232;2023-06-19T06:14:30;96751.92;;;20.30;73.69
79465;BME280;68932;47.410;8.232;2023-06-19T06:16:59;96750.71;;;20.57;74.04
79465;BME280;68932;47.410;8.232;2023-06-19T06:19:27;96749.48;;;20.83;73.50
79465;BME280;68932;47.410;8.232;2023-06-19T06:21:55;96747.72;;;21.03;73.03
79465;BME280;68932;47.410;8.232;2023-06-19T06:24:24;96751.23;;;21.17;72.91
79465;BME280;68932;47.410;8.232;2023-06-19T06:26:52;96754.14;;;21.27;72.38
79465;BME280;68932;47.410;8.232;2023-06-19T06:29:20;96757.25;;;21.36;71.52
79465;BME280;68932;47.410;8.232;2023-06-19T06:31:49;96757.98;;;21.49;71.30
79465;BME280;68932;47.410;8.232;2023-06-19T06:34:17;96757.86;;;21.72;71.25
79465;BME280;68932;47.410;8.232;2023-06-19T06:36:45;96753.04;;;21.89;70.65
79465;BME280;68932;47.410;8.232;2023-06-19T06:39:13;96751.90;;;22.04;70.62
79465;BME280;68932;47.410;8.232;2023-06-19T06:41:42;96750.61;;;22.10;69.41
79465;BME280;68932;47.410;8.232;2023-06-19T06:44:10;96751.30;;;22.11;68.76
79465;BME280;68932;47.410;8.232;2023-06-19T06:46:38;96748.02;;;22.14;68.58
79465;BME280;68932;47.410;8.232;2023-06-19T06:49:07;96746.24;;;22.12;68.55
79465;BME280;68932;47.410;8.232;2023-06-19T06:51:35;96745.73;;;22.09;69.06
79465;BME280;68932;47.410;8.232;2023-06-19T06:54:03;96744.50;;;22.09;68.88
79465;BME280;68932;47.410;8.232;2023-06-19T06:56:31;96747.20;;;22.08;68.50
79465;BME280;68932;47.410;8.232;2023-06-19T06:59:00;96747.70;;;22.07;68.54
79465;BME280;68932;47.410;8.232;2023-06-19T07:01:28;96751.71;;;22.05;68.71
79465;BME280;68932;47.410;8.232;2023-06-19T07:03:57;96744.92;;;22.05;68.92
79465;BME280;68932;47.410;8.232;2023-06-19T07:06:25;96739.21;;;22.08;69.23
79465;BME280;68932;47.410;8.232;2023-06-19T07:08:53;96739.99;;;22.08;69.03
79465;BME280;68932;47.410;8.232;2023-06-19T07:11:21;96739.41;;;22.09;69.16
79465;BME280;68932;47.410;8.232;2023-06-19T07:13:50;96731.38;;;22.12;69.16
79465;BME280;68932;47.410;8.232;2023-06-19T07:16:18;96727.83;;;22.17;68.91
79465;BME280;68932;47.410;8.232;2023-06-19T07:18:46;96725.64;;;22.23;68.89
79465;BME280;68932;47.410;8.232;2023-06-19T07:21:15;96724.95;;;22.28;68.37
79465;BME280;68932;47.410;8.232;2023-06-19T07:23:44;96725.02;;;22.32;68.24
79465;BME280;68932;47.410;8.232;2023-06-19T07:26:14;96723.30;;;22.38;68.11
79465;BME280;68932;47.410;8.232;2023-06-19T07:28:42;96723.46;;;22.42;67.81
79465;BME280;68932;47.410;8.232;2023-06-19T07:31:10;96726.86;;;22.49;67.49
79465;BME280;68932;47.410;8.232;2023-06-19T07:33:39;96725.13;;;22.60;67.64
79465;BME280;68932;47.410;8.232;2023-06-19T07:36:07;96722.23;;;22.76;68.51
79465;BME280;68932;47.410;8.232;2023-06-19T07:38:36;96717.81;;;23.00;68.65
79465;BME280;68932;47.410;8.232;2023-06-19T07:41:04;96712.63;;;23.22;68.26
79465;BME280;68932;47.410;8.232;2023-06-19T07:43:32;96707.27;;;23.44;68.02
79465;BME280;68932;47.410;8.232;2023-06-19T07:46:00;96712.00;;;23.64;67.71
79465;BME280;68932;47.410;8.232;2023-06-19T07:48:29;96711.13;;;23.78;66.21
79465;BME280;68932;47.410;8.232;2023-06-19T07:50:57;96704.06;;;23.92;65.77
79465;BME280;68932;47.410;8.232;2023-06-19T07:53:26;96701.92;;;24.04;65.28
79465;BME280;68932;47.410;8.232;2023-06-19T07:55:54;96701.70;;;24.14;64.81
79465;BME280;68932;47.410;8.232;2023-06-19T07:58:22;96701.88;;;24.24;63.98
79465;BME280;68932;47.410;8.232;2023-06-19T08:00:51;96704.38;;;24.28;63.52
79465;BME280;68932;47.410;8.232;2023-06-19T08:03:19;96702.56;;;24.34;63.62
79465;BME280;68932;47.410;8.232;2023-06-19T08:05:47;96705.02;;;24.46;64.13
79465;BME280;68932;47.410;8.232;2023-06-19T08:08:15;96707.39;;;24.56;63.27
79465;BME280;68932;47.410;8.232;2023-06-19T08:10:44;96711.42;;;24.52;63.04
79465;BME280;68932;47.410;8.232;2023-06-19T08:13:12;96710.92;;;24.45;62.64
79465;BME280;68932;47.410;8.232;2023-06-19T08:15:40;96710.02;;;24.36;62.89
79465;BME280;68932;47.410;8.232;2023-06-19T08:18:09;96706.33;;;24.34;62.71
79465;BME280;68932;47.410;8.232;2023-06-19T08:20:37;96708.16;;;24.31;62.63
79465;BME280;68932;47.410;8.232;2023-06-19T08:23:05;96706.55;;;24.32;63.16
79465;BME280;68932;47.410;8.232;2023-06-19T08:25:34;96706.55;;;24.37;63.29
79465;BME280;68932;47.410;8.232;2023-06-19T08:28:02;96704.24;;;24.42;62.89
79465;BME280;68932;47.410;8.232;2023-06-19T08:30:30;96701.16;;;24.45;62.18
79465;BME280;68932;47.410;8.232;2023-06-19T08:32:59;96696.64;;;24.48;62.22
79465;BME280;68932;47.410;8.232;2023-06-19T08:35:27;96700.19;;;24.50;62.06
79465;BME280;68932;47.410;8.232;2023-06-19T08:37:55;96700.04;;;24.57;62.22
79465;BME280;68932;47.410;8.232;2023-06-19T08:40:24;96701.34;;;24.65;62.63
79465;BME280;68932;47.410;8.232;2023-06-19T08:42:52;96703.07;;;24.77;62.89
79465;BME280;68932;47.410;8.232;2023-06-19T08:45:20;96697.98;;;24.86;62.17
79465;BME280;68932;47.410;8.232;2023-06-19T08:47:49;96697.80;;;24.96;62.31
79465;BME280;68932;47.410;8.232;2023-06-19T08:50:26;96694.50;;;25.06;61.89
79465;BME280;68932;47.410;8.232;2023-06-19T08:52:56;96697.64;;;25.13;61.52
79465;BME280;68932;47.410;8.232;2023-06-19T08:55:25;96697.86;;;25.22;61.12
79465;BME280;68932;47.410;8.232;2023-06-19T08:57:53;96694.80;;;25.26;59.30
79465;BME280;68932;47.410;8.232;2023-06-19T09:00:29;96697.59;;;25.32;60.10
79465;BME280;68932;47.410;8.232;2023-06-19T09:03:02;96690.32;;;25.37;59.11
79465;BME280;68932;47.410;8.232;2023-06-19T09:05:31;96691.04;;;25.41;58.69
79465;BME280;68932;47.410;8.232;2023-06-19T09:08:01;96689.98;;;25.45;58.24
79465;BME280;68932;47.410;8.232;2023-06-19T09:10:30;96688.02;;;25.49;58.45
79465;BME280;68932;47.410;8.232;2023-06-19T09:12:59;96688.93;;;25.51;57.76
79465;BME280;68932;47.410;8.232;2023-06-19T09:15:33;96685.23;;;25.55;57.63
79465;BME280;68932;47.410;8.232;2023-06-19T09:18:04;96689.20;;;25.61;57.40
79465;BME280;68932;47.410;8.232;2023-06-19T09:20:33;96688.79;;;25.65;57.10
79465;BME280;68932;47.410;8.232;2023-06-19T09:23:02;96682.50;;;25.69;56.54
79465;BME280;68932;47.410;8.232;2023-06-19T09:25:31;96681.60;;;25.70;56.75
79465;BME280;68932;47.410;8.232;2023-06-19T09:27:59;96680.77;;;25.77;56.98
79465;BME280;68932;47.410;8.232;2023-06-19T09:30:27;96674.33;;;25.87;56.47
79465;BME280;68932;47.410;8.232;2023-06-19T09:32:56;96667.29;;;25.95;56.15
79465;BME280;68932;47.410;8.232;2023-06-19T09:35:33;96664.77;;;26.01;56.55
79465;BME280;68932;47.410;8.232;2023-06-19T09:38:02;96663.36;;;26.14;57.71
79465;BME280;68932;47.410;8.232;2023-06-19T09:40:31;96659.34;;;26.28;56.83
79465;BME280;68932;47.410;8.232;2023-06-19T09:42:59;96656.02;;;26.37;53.70
79465;BME280;68932;47.410;8.232;2023-06-19T09:45:32;96652.64;;;26.43;53.39
79465;BME280;68932;47.410;8.232;2023-06-19T09:48:01;96649.40;;;26.51;52.78
79465;BME280;68932;47.410;8.232;2023-06-19T09:50:30;96652.96;;;26.58;52.61
79465;BME280;68932;47.410;8.232;2023-06-19T09:52:59;96643.31;;;26.64;52.60
79465;BME280;68932;47.410;8.232;2023-06-19T09:55:29;96640.77;;;26.71;53.43
79465;BME280;68932;47.410;8.232;2023-06-19T09:57:59;96644.46;;;26.81;52.66
79465;BME280;68932;47.410;8.232;2023-06-19T10:00:27;96645.95;;;26.86;53.61
79465;BME280;68932;47.410;8.232;2023-06-19T10:02:56;96643.17;;;26.86;53.48
79465;BME280;68932;47.410;8.232;2023-06-19T10:08:12;96638.29;;;27.03;51.08
79465;BME280;68932;47.410;8.232;2023-06-19T10:10:48;96637.23;;;27.11;53.49
79465;BME280;68932;47.410;8.232;2023-06-19T10:13:17;96632.17;;;27.18;54.75
79465;BME280;68932;47.410;8.232;2023-06-19T10:15:46;96633.98;;;27.28;54.81
79465;BME280;68932;47.410;8.232;2023-06-19T10:18:17;96632.66;;;27.35;53.54
79465;BME280;68932;47.410;8.232;2023-06-19T10:20:46;96630.58;;;27.38;54.28
79465;BME280;68932;47.410;8.232;2023-06-19T10:23:17;96634.75;;;27.47;53.59
79465;BME280;68932;47.410;8.232;2023-06-19T10:25:47;96632.02;;;27.51;53.62
79465;BME280;68932;47.410;8.232;2023-06-19T10:28:20;96635.77;;;27.59;54.53
79465;BME280;68932;47.410;8.232;2023-06-19T10:30:57;96629.56;;;27.68;52.86
79465;BME280;68932;47.410;8.232;2023-06-19T10:33:27;96630.34;;;27.76;52.12
79465;BME280;68932;47.410;8.232;2023-06-19T10:35:55;96626.92;;;27.83;52.82
79465;BME280;68932;47.410;8.232;2023-06-19T10:38:24;96622.71;;;27.94;51.47
79465;BME280;68932;47.410;8.232;2023-06-19T10:40:52;96623.83;;;28.00;50.78
79465;BME280;68932;47.410;8.232;2023-06-19T10:43:23;96617.66;;;28.07;50.30
79465;BME280;68932;47.410;8.232;2023-06-19T10:45:52;96619.66;;;28.17;50.36
79465;BME280;68932;47.410;8.232;2023-06-19T10:48:24;96623.34;;;28.23;49.56
79465;BME280;68932;47.410;8.232;2023-06-19T10:50:53;96621.34;;;28.25;48.86
79465;BME280;68932;47.410;8.232;2023-06-19T10:53:29;96624.16;;;28.25;47.60
79465;BME280;68932;47.410;8.232;2023-06-19T10:55:59;96622.20;;;28.26;47.13
79465;BME280;68932;47.410;8.232;2023-06-19T10:58:28;96618.24;;;28.30;47.03
79465;BME280;68932;47.410;8.232;2023-06-19T11:00:58;96614.34;;;28.35;46.81
79465;BME280;68932;47.410;8.232;2023-06-19T11:03:26;96617.10;;;28.38;46.13
79465;BME280;68932;47.410;8.232;2023-06-19T11:05:54;96612.95;;;28.41;45.66
79465;BME280;68932;47.410;8.232;2023-06-19T11:08:23;96603.75;;;28.46;45.39
79465;BME280;68932;47.410;8.232;2023-06-19T11:10:51;96604.30;;;28.49;44.56
79465;BME280;68932;47.410;8.232;2023-06-19T11:13:20;96598.29;;;28.54;44.11
79465;BME280;68932;47.410;8.232;2023-06-19T11:15:50;96597.27;;;28.59;43.92
79465;BME280;68932;47.410;8.232;2023-06-19T11:18:19;96594.38;;;28.65;44.17
79465;BME280;68932;47.410;8.232;2023-06-19T11:20:49;96593.79;;;28.70;42.56
79465;BME280;68932;47.410;8.232;2023-06-19T11:23:24;96589.90;;;28.72;43.13
79465;BME280;68932;47.410;8.232;2023-06-19T11:25:52;96590.80;;;28.73;41.14
79465;BME280;68932;47.410;8.232;2023-06-19T11:28:21;96582.27;;;28.70;41.04
79465;BME280;68932;47.410;8.232;2023-06-19T11:30:56;96582.72;;;28.73;41.87
79465;BME280;68932;47.410;8.232;2023-06-19T11:33:25;96578.13;;;28.75;40.27
79465;BME280;68932;47.410;8.232;2023-06-19T11:35:55;96576.11;;;28.76;40.84
79465;BME280;68932;47.410;8.232;2023-06-19T11:38:27;96573.94;;;28.79;40.00
79465;BME280;68932;47.410;8.232;2023-06-19T11:40:56;96571.73;;;28.80;40.03
79465;BME280;68932;47.410;8.232;2023-06-19T11:43:28;96561.62;;;28.84;39.92
79465;BME280;68932;47.410;8.232;2023-06-19T11:46:03;96557.48;;;28.92;40.62
79465;BME280;68932;47.410;8.232;2023-06-19T11:48:31;96563.66;;;29.06;41.25
79465;BME280;68932;47.410;8.232;2023-06-19T11:51:00;96561.09;;;29.18;40.05
79465;BME280;68932;47.410;8.232;2023-06-19T11:53:28;96557.21;;;29.26;37.85
79465;BME280;68932;47.410;8.232;2023-06-19T11:55:56;96550.73;;;29.30;38.08
79465;BME280;68932;47.410;8.232;2023-06-19T11:58:25;96546.61;;;29.42;39.79
79465;BME280;68932;47.410;8.232;2023-06-19T12:00:54;96542.86;;;29.53;39.17
79465;BME280;68932;47.410;8.232;2023-06-19T12:03:22;96544.23;;;29.62;39.09
79465;BME280;68932;47.410;8.232;2023-06-19T12:05:51;96537.29;;;29.72;37.82
79465;BME280;68932;47.410;8.232;2023-06-19T12:08:19;96535.19;;;29.83;38.77
79465;BME280;68932;47.410;8.232;2023-06-19T12:10:47;96535.69;;;29.97;37.90
79465;BME280;68932;47.410;8.232;2023-06-19T12:13:16;96531.61;;;30.06;37.44
79465;BME280;68932;47.410;8.232;2023-06-19T12:15:44;96528.27;;;30.16;36.96
79465;BME280;68932;47.410;8.232;2023-06-19T12:18:13;96525.52;;;30.24;36.53
79465;BME280;68932;47.410;8.232;2023-06-19T12:20:41;96527.76;;;30.31;35.91
79465;BME280;68932;47.410;8.232;2023-06-19T12:23:09;96527.04;;;30.36;36.23
79465;BME280;68932;47.410;8.232;2023-06-19T12:25:38;96528.85;;;30.39;36.48
79465;BME280;68932;47.410;8.232;2023-06-19T12:28:06;96528.65;;;30.47;36.33
79465;BME280;68932;47.410;8.232;2023-06-19T12:30:35;96524.63;;;30.57;35.79
79465;BME280;68932;47.410;8.232;2023-06-19T12:33:04;96521.59;;;30.60;35.20
79465;BME280;68932;47.410;8.232;2023-06-19T12:35:32;96523.34;;;30.52;34.34
79465;BME280;68932;47.410;8.232;2023-06-19T12:38:00;96520.83;;;30.35;34.31
79465;BME280;68932;47.410;8.232;2023-06-19T12:40:28;96514.03;;;30.24;34.16
79465;BME280;68932;47.410;8.232;2023-06-19T12:42:57;96513.95;;;30.20;35.07
79465;BME280;68932;47.410;8.232;2023-06-19T12:45:25;96507.81;;;30.16;35.04
79465;BME280;68932;47.410;8.232;2023-06-19T12:47:53;96511.16;;;30.11;35.50
79465;BME280;68932;47.410;8.232;2023-06-19T12:50:22;96508.77;;;30.03;34.68
79465;BME280;68932;47.410;8.232;2023-06-19T12:52:50;96511.45;;;29.92;33.86
79465;BME280;68932;47.410;8.232;2023-06-19T12:55:18;96509.16;;;29.84;34.37
79465;BME280;68932;47.410;8.232;2023-06-19T12:57:47;96508.38;;;29.76;34.70
79465;BME280;68932;47.410;8.232;2023-06-19T13:00:16;96509.52;;;29.67;34.44
79465;BME280;68932;47.410;8.232;2023-06-19T13:02:44;96513.73;;;29.58;35.12
79465;BME280;68932;47.410;8.232;2023-06-19T13:05:13;96510.25;;;29.51;35.16
79465;BME280;68932;47.410;8.232;2023-06-19T13:07:41;96510.93;;;29.43;35.17
79465;BME280;68932;47.410;8.232;2023-06-19T13:10:10;96509.97;;;29.37;36.44